Time;durP1;ratioP1;P1;durP2;ratioP2;P2;SDS_P1;SDS_P2;PMS_P1;PMS_P2;Temp;Humidity;BMP_temperature;BMP_pressure;BME280_temperature;BME280_humidity;BME280_pressure;Samples;Min_cycle;Max_cycle;Signal;HPM_P1;HPM_P2
2022/04/23 00:00:26;;;;;;;;;;;;;;;;;;5076983;28;19909;-43
2022/04/23 00:02:51;;;;;;;;;;;;;;;;;;5077191;28;19919;-43
2022/04/23 00:05:17;;;;;;;;;;;;;;;;;;5076769;28;19909;-44
2022/04/23 00:07:42;;;;;;;;;;;;;;;;;;5076895;28;19909;-44
2022/04/23 00:10:08;;;;;;;;;;;;;;;;;;5076586;28;19966;-43
2022/04/23 00:12:33;;;;;;;;;;;;;;;;;;5076719;28;19916;-43
2022/04/23 00:14:59;;;;;;;;;;;;;;;;;;5074524;28;19916;-43
2022/04/23 00:17:24;;;;;;;;;;;;;;;;;;5076927;28;19912;-44
2022/04/23 00:19:49;;;;;;;;;;;;;;;;;;5076631;28;19908;-44
2022/04/23 00:22:15;;;;;;;;;;;;;;;;;;5076627;28;19915;-43
2022/04/23 00:24:41;;;;;;;;;;;;;;;;;;5076447;28;19921;-43
2022/04/23 00:27:06;;;;;;;;;;;;;;;;;;5076414;28;19953;-44
2022/04/23 00:29:31;;;;;;;;;;;;;;;;;;5076416;28;20412;-44
2022/04/23 00:31:56;;;;;;;;;;;;;;;;;;5076295;28;19962;-44
2022/04/23 00:34:22;;;;;;;;;;;;;;;;;;5076391;28;20425;-44
2022/04/23 00:36:47;;;;;;;;;;;;;;;;;;5076343;28;20000;-43
2022/04/23 00:39:12;;;;;;;;;;;;;;;;;;5076645;28;19912;-44
2022/04/23 00:41:45;;;;;;;;;;;;;;;;;;5076103;28;20382;-44
2022/04/23 00:44:10;;;;;;;;;;;;;;;;;;5076202;28;19913;-43
2022/04/23 00:46:35;;;;;;;;;;;;;;;;;;5076005;28;19915;-43
2022/04/23 00:49:00;;;;;;;;;;;;;;;;;;5075804;28;19915;-44
2022/04/23 00:51:25;;;;;;;;;;;;;;;;;;5075662;28;19913;-44
2022/04/23 00:53:50;;;;;;;;;;;;;;;;;;5075866;28;19917;-44
2022/04/23 00:56:16;;;;;;;;;;;;;;;;;;5075835;28;19920;-44
2022/04/23 00:58:41;;;;;;;;;;;;;;;;;;5075861;28;20344;-43
2022/04/23 01:01:06;;;;;;;;;;;;;;;;;;5075832;28;19908;-43
2022/04/23 01:03:32;;;;;;;;;;;;;;;;;;5075477;28;20003;-43
2022/04/23 01:05:57;;;;;;;;;;;;;;;;;;5075882;28;19908;-43
2022/04/23 01:08:24;;;;;;;;;;;;;;;;;;5075965;28;19954;-43
2022/04/23 01:10:49;;;;;;;;;;;;;;;;;;5073912;28;19920;-44
2022/04/23 01:13:14;;;;;;;;;;;;;;;;;;5075804;28;20075;-43
2022/04/23 01:15:43;;;;;;;;;;;;;;;;;;5075992;28;19939;-43
2022/04/23 01:18:08;;;;;;;;;;;;;;;;;;5075475;28;19971;-44
2022/04/23 01:20:34;;;;;;;;;;;;;;;;;;5075804;28;19913;-42
2022/04/23 01:22:59;;;;;;;;;;;;;;;;;;5075799;28;19908;-42
2022/04/23 01:25:26;;;;;;;;;;;;;;;;;;5075334;28;19912;-43
2022/04/23 01:27:51;;;;;;;;;;;;;;;;;;5075445;28;19908;-44
2022/04/23 01:30:18;;;;;;;;;;;;;;;;;;5075437;28;20065;-43
2022/04/23 01:32:43;;;;;;;;;;;;;;;;;;5075679;28;19952;-45
2022/04/23 01:35:09;;;;;;;;;;;;;;;;;;5075271;28;20318;-42
2022/04/23 01:37:34;;;;;;;;;;;;;;;;;;5075195;28;19908;-44
2022/04/23 01:39:59;;;;;;;;;;;;;;;;;;5075238;28;19912;-42
2022/04/23 01:42:24;;;;;;;;;;;;;;;;;;5075316;28;20015;-44
2022/04/23 01:44:49;;;;;;;;;;;;;;;;;;5075578;28;19919;-44
2022/04/23 01:47:14;;;;;;;;;;;;;;;;;;5075661;28;19920;-44
2022/04/23 01:49:39;;;;;;;;;;;;;;;;;;5075183;28;19983;-44
2022/04/23 01:52:05;;;;;;;;;;;;;;;;;;5075247;28;19909;-42
2022/04/23 01:54:32;;;;;;;;;;;;;;;;;;5074499;28;19974;-44
2022/04/23 01:56:57;;;;;;;;;;;;;;;;;;5075200;28;19916;-44
2022/04/23 01:59:22;;;;;;;;;;;;;;;;;;5075044;28;19904;-43
2022/04/23 02:01:48;;;;;;;;;;;;;;;;;;5075546;28;19923;-42
2022/04/23 02:04:13;;;;;;;;;;;;;;;;;;5075402;28;19916;-42
2022/04/23 02:06:38;;;;;;;;;;;;;;;;;;5075336;28;19919;-44
2022/04/23 02:09:04;;;;;;;;;;;;;;;;;;5074985;28;19908;-45
2022/04/23 02:11:29;;;;;;;;;;;;;;;;;;5075135;28;19916;-43
2022/04/23 02:13:54;;;;;;;;;;;;;;;;;;5074631;28;19913;-43
2022/04/23 02:16:19;;;;;;;;;;;;;;;;;;5090492;28;19930;-44
2022/04/23 02:18:45;;;;;;;;;;;;;;;;;;5074901;28;19920;-43
2022/04/23 02:21:10;;;;;;;;;;;;;;;;;;5074876;28;19916;-42
2022/04/23 02:23:35;;;;;;;;;;;;;;;;;;5075222;28;19912;-43
2022/04/23 02:26:00;;;;;;;;;;;;;;;;;;5074419;28;19912;-43
2022/04/23 02:28:25;;;;;;;;;;;;;;;;;;5075094;28;19912;-43
2022/04/23 02:30:50;;;;;;;;;;;;;;;;;;5075005;28;19978;-43
2022/04/23 02:33:16;;;;;;;;;;;;;;;;;;5075332;28;19916;-43
2022/04/23 02:35:41;;;;;;;;;;;;;;;;;;5074966;28;19912;-43
2022/04/23 02:38:06;;;;;;;;;;;;;;;;;;5077929;28;19909;-43
2022/04/23 02:40:31;;;;;;;;;;;;;;;;;;5078876;28;19924;-43
2022/04/23 02:42:57;;;;;;;;;;;;;;;;;;5078918;28;20004;-43
2022/04/23 02:45:24;;;;;;;;;;;;;;;;;;5078693;28;19905;-43
2022/04/23 02:47:49;;;;;;;;;;;;;;;;;;5078317;28;19951;-43
2022/04/23 02:50:14;;;;;;;;;;;;;;;;;;5078576;28;20237;-42
2022/04/23 02:52:39;;;;;;;;;;;;;;;;;;5078606;28;20382;-42
2022/04/23 02:55:05;;;;;;;;;;;;;;;;;;5078262;28;19924;-44
2022/04/23 02:57:31;;;;;;;;;;;;;;;;;;5078084;28;19912;-44
2022/04/23 02:59:56;;;;;;;;;;;;;;;;;;5078667;28;20368;-43
2022/04/23 03:02:21;;;;;;;;;;;;;;;;;;5078221;28;20343;-43
2022/04/23 03:04:46;;;;;;;;;;;;;;;;;;5078490;28;19909;-42
2022/04/23 03:07:11;;;;;;;;;;;;;;;;;;5093996;28;19905;-43
2022/04/23 03:09:36;;;;;;;;;;;;;;;;;;5078206;28;19908;-43
2022/04/23 03:12:01;;;;;;;;;;;;;;;;;;5077811;28;19908;-43
2022/04/23 03:14:26;;;;;;;;;;;;;;;;;;5078331;28;19909;-43
2022/04/23 03:16:51;;;;;;;;;;;;;;;;;;5078199;28;19920;-43
2022/04/23 03:19:17;;;;;;;;;;;;;;;;;;5078028;28;20271;-44
2022/04/23 03:21:42;;;;;;;;;;;;;;;;;;5077963;28;19915;-45
2022/04/23 03:24:07;;;;;;;;;;;;;;;;;;5078241;28;19908;-45
2022/04/23 03:26:32;;;;;;;;;;;;;;;;;;5077196;28;19916;-44
2022/04/23 03:28:57;;;;;;;;;;;;;;;;;;5077840;28;20256;-44
2022/04/23 03:31:22;;;;;;;;;;;;;;;;;;5077947;28;19912;-44
2022/04/23 03:33:47;;;;;;;;;;;;;;;;;;5077901;28;19908;-44
2022/04/23 03:36:12;;;;;;;;;;;;;;;;;;5077793;28;19908;-44
2022/04/23 03:38:38;;;;;;;;;;;;;;;;;;5078190;28;19969;-43
2022/04/23 03:41:04;;;;;;;;;;;;;;;;;;5077526;28;19930;-44
2022/04/23 03:43:31;;;;;;;;;;;;;;;;;;5077567;28;19912;-44
2022/04/23 03:45:56;;;;;;;;;;;;;;;;;;5077468;28;20313;-45
2022/04/23 03:48:22;;;;;;;;;;;;;;;;;;5076186;28;19915;-44
2022/04/23 03:50:48;;;;;;;;;;;;;;;;;;5077115;28;19912;-44
2022/04/23 03:53:14;;;;;;;;;;;;;;;;;;5077383;28;19916;-43
2022/04/23 03:55:39;;;;;;;;;;;;;;;;;;5076953;28;19928;-43
2022/04/23 03:58:04;;;;;;;;;;;;;;;;;;5077793;28;19962;-44
2022/04/23 04:00:30;;;;;;;;;;;;;;;;;;5077549;28;19913;-43
2022/04/23 04:02:56;;;;;;;;;;;;;;;;;;5077368;28;19916;-44
2022/04/23 04:05:22;;;;;;;;;;;;;;;;;;5077151;28;19905;-44
2022/04/23 04:07:47;;;;;;;;;;;;;;;;;;5077030;28;19943;-44
2022/04/23 04:10:12;;;;;;;;;;;;;;;;;;5076794;28;20378;-42
2022/04/23 04:12:38;;;;;;;;;;;;;;;;;;5076832;28;19923;-43
2022/04/23 04:15:03;;;;;;;;;;;;;;;;;;5076807;28;19962;-43
2022/04/23 04:17:28;;;;;;;;;;;;;;;;;;5076869;28;19908;-43
2022/04/23 04:19:53;;;;;;;;;;;;;;;;;;5092734;28;19908;-43
2022/04/23 04:22:21;;;;;;;;;;;;;;;;;;5077169;28;19913;-43
2022/04/23 04:24:46;;;;;;;;;;;;;;;;;;5076622;28;20275;-44
2022/04/23 04:27:11;;;;;;;;;;;;;;;;;;5076588;28;19912;-43
2022/04/23 04:29:36;;;;;;;;;;;;;;;;;;5076752;28;19920;-44
2022/04/23 04:32:01;;;;;;;;;;;;;;;;;;5076869;28;19908;-43
2022/04/23 04:34:32;;;;;;;;;;;;;;;;;;5076730;28;19908;-43
2022/04/23 04:36:57;;;;;;;;;;;;;;;;;;5076730;28;19909;-44
2022/04/23 04:39:22;;;;;;;;;;;;;;;;;;5076478;28;19909;-44
2022/04/23 04:41:48;;;;;;;;;;;;;;;;;;5076276;28;19995;-43
2022/04/23 04:44:13;;;;;;;;;;;;;;;;;;5076426;28;19912;-44
2022/04/23 04:46:38;;;;;;;;;;;;;;;;;;5075118;28;19919;-44
2022/04/23 04:49:03;;;;;;;;;;;;;;;;;;5076428;28;19963;-44
2022/04/23 04:51:28;;;;;;;;;;;;;;;;;;5076410;28;20011;-44
2022/04/23 04:53:53;;;;;;;;;;;;;;;;;;5075737;28;19930;-44
2022/04/23 04:56:19;;;;;;;;;;;;;;;;;;5075911;28;19917;-44
2022/04/23 04:58:44;;;;;;;;;;;;;;;;;;5075830;28;19919;-44
2022/04/23 05:01:09;;;;;;;;;;;;;;;;;;5091211;28;19915;-44
2022/04/23 05:03:34;;;;;;;;;;;;;;;;;;5076027;28;20389;-44
2022/04/23 05:05:59;;;;;;;;;;;;;;;;;;5075896;28;19971;-45
2022/04/23 05:08:24;;;;;;;;;;;;;;;;;;5075522;28;19908;-42
2022/04/23 05:10:49;;;;;;;;;;;;;;;;;;5075624;28;19916;-43
2022/04/23 05:13:14;;;;;;;;;;;;;;;;;;5075617;28;19909;-43
2022/04/23 05:15:39;;;;;;;;;;;;;;;;;;5075578;28;19916;-43
2022/04/23 05:18:05;;;;;;;;;;;;;;;;;;5075637;28;19904;-44
2022/04/23 05:20:30;;;;;;;;;;;;;;;;;;5075839;28;19909;-43
2022/04/23 05:22:55;;;;;;;;;;;;;;;;;;5075762;28;19908;-43
2022/04/23 05:25:20;;;;;;;;;;;;;;;;;;5075440;28;19943;-45
2022/04/23 05:27:45;;;;;;;;;;;;;;;;;;5075785;28;19908;-43
2022/04/23 05:30:10;;;;;;;;;;;;;;;;;;5075924;28;19916;-44
2022/04/23 05:32:35;;;;;;;;;;;;;;;;;;5075807;28;20294;-44
2022/04/23 05:35:00;;;;;;;;;;;;;;;;;;5075297;28;19908;-44
2022/04/23 05:37:25;;;;;;;;;;;;;;;;;;5075369;28;19904;-44
2022/04/23 05:39:50;;;;;;;;;;;;;;;;;;5075254;28;20348;-43
2022/04/23 05:42:16;;;;;;;;;;;;;;;;;;5075448;28;19947;-43
2022/04/23 05:44:41;;;;;;;;;;;;;;;;;;5075248;28;19949;-43
2022/04/23 05:47:06;;;;;;;;;;;;;;;;;;5075234;28;19940;-46
2022/04/23 05:49:31;;;;;;;;;;;;;;;;;;5075318;28;20279;-44
2022/04/23 05:51:56;;;;;;;;;;;;;;;;;;5075355;28;19946;-44
2022/04/23 05:54:21;;;;;;;;;;;;;;;;;;5075252;28;20007;-43
2022/04/23 05:56:46;;;;;;;;;;;;;;;;;;5075095;28;20364;-44
2022/04/23 05:59:11;;;;;;;;;;;;;;;;;;5074818;28;19915;-44
2022/04/23 06:01:36;;;;;;;;;;;;;;;;;;5075306;28;19987;-43
2022/04/23 06:04:02;;;;;;;;;;;;;;;;;;5075256;28;20426;-44
2022/04/23 06:06:27;;;;;;;;;;;;;;;;;;5074925;28;19909;-44
2022/04/23 06:08:52;;;;;;;;;;;;;;;;;;5075247;28;20355;-44
2022/04/23 06:11:17;;;;;;;;;;;;;;;;;;5074797;28;19912;-44
2022/04/23 06:13:42;;;;;;;;;;;;;;;;;;5078795;28;19913;-44
2022/04/23 06:16:08;;;;;;;;;;;;;;;;;;5078757;28;19999;-45
2022/04/23 06:18:33;;;;;;;;;;;;;;;;;;5079029;28;19908;-44
2022/04/23 06:20:58;;;;;;;;;;;;;;;;;;5079131;28;19916;-45
2022/04/23 06:23:23;;;;;;;;;;;;;;;;;;5079115;28;19912;-44
2022/04/23 06:25:49;;;;;;;;;;;;;;;;;;5078638;28;19967;-44
2022/04/23 06:28:14;;;;;;;;;;;;;;;;;;5077623;28;20283;-43
2022/04/23 06:30:39;;;;;;;;;;;;;;;;;;5078550;28;19935;-44
2022/04/23 06:33:04;;;;;;;;;;;;;;;;;;5078619;28;20283;-42
2022/04/23 06:35:30;;;;;;;;;;;;;;;;;;5078602;28;19919;-45
2022/04/23 06:37:55;;;;;;;;;;;;;;;;;;5078632;28;19908;-44
2022/04/23 06:40:21;;;;;;;;;;;;;;;;;;5078347;28;20367;-43
2022/04/23 06:42:46;;;;;;;;;;;;;;;;;;5078855;28;19995;-44
2022/04/23 06:45:11;;;;;;;;;;;;;;;;;;5078515;28;19948;-43
2022/04/23 06:47:36;;;;;;;;;;;;;;;;;;5078490;28;19908;-44
2022/04/23 06:50:01;;;;;;;;;;;;;;;;;;5078209;28;19994;-44
2022/04/23 06:52:26;;;;;;;;;;;;;;;;;;5078203;28;20263;-43
2022/04/23 06:54:54;;;;;;;;;;;;;;;;;;5077556;28;19935;-44
2022/04/23 06:57:20;;;;;;;;;;;;;;;;;;5078303;28;19931;-43
2022/04/23 06:59:45;;;;;;;;;;;;;;;;;;5077994;28;19908;-44
2022/04/23 07:02:10;;;;;;;;;;;;;;;;;;5078249;28;19916;-43
2022/04/23 07:04:35;;;;;;;;;;;;;;;;;;5078061;28;19912;-44
2022/04/23 07:07:00;;;;;;;;;;;;;;;;;;5077703;28;19908;-43
2022/04/23 07:09:25;;;;;;;;;;;;;;;;;;5077869;28;19916;-43
2022/04/23 07:11:51;;;;;;;;;;;;;;;;;;5076337;28;19920;-45
2022/04/23 07:14:16;;;;;;;;;;;;;;;;;;5077806;28;19954;-44
2022/04/23 07:16:42;;;;;;;;;;;;;;;;;;5077888;28;19912;-45
2022/04/23 07:19:09;;;;;;;;;;;;;;;;;;5077952;28;19909;-44
2022/04/23 07:21:34;;;;;;;;;;;;;;;;;;5077680;28;19913;-44
2022/04/23 07:24:07;;;;;;;;;;;;;;;;;;5077356;28;19909;-44
2022/04/23 07:26:33;;;;;;;;;;;;;;;;;;5076814;28;19915;-43
2022/04/23 07:28:58;;;;;;;;;;;;;;;;;;5077548;28;19952;-44
2022/04/23 07:31:23;;;;;;;;;;;;;;;;;;5077759;28;19918;-43
2022/04/23 07:39:16;;;;;;;;;;;;;;;;;;5077511;28;19951;-44
2022/04/23 07:41:41;;;;;;;;;;;;;;;;;;5077297;28;19908;-46
2022/04/23 07:44:06;;;;;;;;;;;;;;;;;;5077188;28;19909;-44
2022/04/23 07:46:31;;;;;;;;;;;;;;;;;;5076972;28;20359;-44
2022/04/23 07:48:58;;;;;;;;;;;;;;;;;;5077168;28;20360;-45
2022/04/23 07:51:26;;;;;;;;;;;;;;;;;;5077017;28;19919;-44
2022/04/23 07:53:52;;;;;;;;;;;;;;;;;;5076465;28;19913;-43
2022/04/23 07:56:17;;;;;;;;;;;;;;;;;;5076555;28;19943;-44
2022/04/23 07:58:42;;;;;;;;;;;;;;;;;;5076992;28;19908;-45
2022/04/23 08:01:07;;;;;;;;;;;;;;;;;;5076829;28;19908;-43
2022/04/23 08:03:32;;;;;;;;;;;;;;;;;;5076741;28;20334;-44
2022/04/23 08:05:57;;;;;;;;;;;;;;;;;;5076719;28;20419;-43
2022/04/23 08:08:22;;;;;;;;;;;;;;;;;;5076862;28;20248;-44
2022/04/23 08:10:47;;;;;;;;;;;;;;;;;;5076646;28;20462;-45
2022/04/23 08:13:13;;;;;;;;;;;;;;;;;;5076692;28;19909;-43
2022/04/23 08:15:39;;;;;;;;;;;;;;;;;;5076258;28;19909;-47
2022/04/23 08:18:05;;;;;;;;;;;;;;;;;;5076732;28;20316;-46
2022/04/23 08:20:30;;;;;;;;;;;;;;;;;;5076638;28;20279;-44
2022/04/23 08:22:56;;;;;;;;;;;;;;;;;;5076323;28;19913;-43
2022/04/23 08:25:21;;;;;;;;;;;;;;;;;;5076409;28;19912;-43
2022/04/23 08:27:46;;;;;;;;;;;;;;;;;;5076523;28;19905;-43
2022/04/23 08:32:55;;;;;;;;;;;;;;;;;;5076025;28;20378;-44
2022/04/23 08:35:20;;;;;;;;;;;;;;;;;;5075735;28;19908;-43
2022/04/23 08:37:46;;;;;;;;;;;;;;;;;;5076092;28;20271;-44
2022/04/23 08:40:11;;;;;;;;;;;;;;;;;;5075986;28;20007;-43
2022/04/23 08:42:36;;;;;;;;;;;;;;;;;;5075757;28;19911;-43
2022/04/23 08:45:01;;;;;;;;;;;;;;;;;;5075614;28;19958;-44
2022/04/23 08:47:26;;;;;;;;;;;;;;;;;;5075835;28;20330;-44
2022/04/23 08:49:52;;;;;;;;;;;;;;;;;;5075532;28;20348;-44
2022/04/23 08:52:18;;;;;;;;;;;;;;;;;;5075507;28;19909;-43
2022/04/23 08:54:43;;;;;;;;;;;;;;;;;;5075104;28;19924;-44
2022/04/23 08:57:08;;;;;;;;;;;;;;;;;;5075619;28;19961;-43
2022/04/23 08:59:33;;;;;;;;;;;;;;;;;;5075556;28;20004;-44
2022/04/23 09:01:58;;;;;;;;;;;;;;;;;;5075538;28;20085;-44
2022/04/23 09:04:23;;;;;;;;;;;;;;;;;;5075587;28;20045;-44
2022/04/23 09:06:49;;;;;;;;;;;;;;;;;;5075687;28;20485;-43
2022/04/23 09:09:14;;;;;;;;;;;;;;;;;;5075299;28;20359;-44
2022/04/23 09:11:40;;;;;;;;;;;;;;;;;;5075239;28;19936;-43
2022/04/23 09:14:06;;;;;;;;;;;;;;;;;;5075388;28;19923;-43
2022/04/23 09:24:43;;;;;;;;;;;;;;;;;;5075285;28;19916;-44
2022/04/23 09:27:08;;;;;;;;;;;;;;;;;;5075048;28;19912;-44
2022/04/23 09:29:33;;;;;;;;;;;;;;;;;;5075052;28;19915;-46
2022/04/23 09:31:58;;;;;;;;;;;;;;;;;;5075091;28;20270;-44
2022/04/23 09:34:23;;;;;;;;;;;;;;;;;;5075113;28;20363;-45
2022/04/23 09:36:49;;;;;;;;;;;;;;;;;;5074897;28;19913;-43
2022/04/23 09:39:14;;;;;;;;;;;;;;;;;;5073261;28;20240;-43
2022/04/23 09:41:39;;;;;;;;;;;;;;;;;;5074747;28;19912;-43
2022/04/23 09:44:05;;;;;;;;;;;;;;;;;;5074746;28;19912;-43
2022/04/23 09:46:30;;;;;;;;;;;;;;;;;;5073593;28;20003;-44
2022/04/23 09:48:57;;;;;;;;;;;;;;;;;;5074871;28;19963;-43
2022/04/23 09:51:24;;;;;;;;;;;;;;;;;;5074495;28;19974;-43
2022/04/23 09:53:50;;;;;;;;;;;;;;;;;;5074564;28;19921;-44
2022/04/23 09:56:15;;;;;;;;;;;;;;;;;;5074561;28;19927;-44
2022/04/23 09:58:41;;;;;;;;;;;;;;;;;;5074640;28;19908;-43
2022/04/23 10:01:07;;;;;;;;;;;;;;;;;;5074673;28;19909;-43
2022/04/23 10:03:32;;;;;;;;;;;;;;;;;;5074637;28;19913;-43
2022/04/23 10:05:57;;;;;;;;;;;;;;;;;;5074616;28;19909;-44
2022/04/23 10:08:22;;;;;;;;;;;;;;;;;;5074542;28;19962;-44
2022/04/23 10:10:47;;;;;;;;;;;;;;;;;;5074493;28;19959;-43
2022/04/23 10:13:15;;;;;;;;;;;;;;;;;;5074619;28;19917;-43
2022/04/23 10:15:40;;;;;;;;;;;;;;;;;;5074422;28;19908;-43
2022/04/23 10:18:05;;;;;;;;;;;;;;;;;;5074510;28;19908;-44
2022/04/23 10:20:30;;;;;;;;;;;;;;;;;;5074555;28;19908;-44
2022/04/23 10:22:55;;;;;;;;;;;;;;;;;;5074269;28;20283;-44
2022/04/23 10:25:24;;;;;;;;;;;;;;;;;;5074010;28;20337;-43
2022/04/23 10:27:50;;;;;;;;;;;;;;;;;;5074609;28;19958;-45
2022/04/23 10:30:15;;;;;;;;;;;;;;;;;;5074739;28;19917;-45
2022/04/23 10:32:40;;;;;;;;;;;;;;;;;;5074223;28;19931;-45
2022/04/23 10:35:06;;;;;;;;;;;;;;;;;;5074203;28;19947;-44
2022/04/23 10:37:32;;;;;;;;;;;;;;;;;;5074328;28;19913;-44
2022/04/23 10:39:57;;;;;;;;;;;;;;;;;;5074339;28;20020;-44
2022/04/23 10:42:22;;;;;;;;;;;;;;;;;;5074203;28;19909;-44
2022/04/23 10:44:48;;;;;;;;;;;;;;;;;;5074094;28;20316;-44
2022/04/23 10:47:14;;;;;;;;;;;;;;;;;;5074107;28;19961;-45
2022/04/23 10:49:39;;;;;;;;;;;;;;;;;;5074152;28;20320;-44
2022/04/23 10:52:05;;;;;;;;;;;;;;;;;;5073812;28;20019;-44
2022/04/23 10:54:30;;;;;;;;;;;;;;;;;;5081597;22;19920;-44
2022/04/23 10:56:55;;;;;;;;;;;;;;;;;;5074102;28;19997;-45
2022/04/23 10:59:20;;;;;;;;;;;;;;;;;;5077244;28;19905;-44
2022/04/23 11:01:46;;;;;;;;;;;;;;;;;;5077977;28;20361;-44
2022/04/23 11:04:11;;;;;;;;;;;;;;;;;;5078043;28;19912;-45
2022/04/23 11:12:18;;;;;;;;;;;;;;;;;;5077766;28;19919;-43
2022/04/23 11:14:48;;;;;;;;;;;;;;;;;;5077683;28;19912;-43
2022/04/23 11:17:17;;;;;;;;;;;;;;;;;;5077355;28;19908;-42
2022/04/23 11:19:42;;;;;;;;;;;;;;;;;;5077705;28;19977;-43
2022/04/23 11:22:09;;;;;;;;;;;;;;;;;;5077234;28;20367;-43
2022/04/23 11:24:34;;;;;;;;;;;;;;;;;;5077442;28;19909;-43
2022/04/23 11:27:00;;;;;;;;;;;;;;;;;;5077441;28;19915;-42
2022/04/23 11:29:27;;;;;;;;;;;;;;;;;;5077278;28;19932;-44
2022/04/23 11:31:53;;;;;;;;;;;;;;;;;;5077146;28;20359;-44
2022/04/23 11:34:18;;;;;;;;;;;;;;;;;;5077138;28;19993;-44
2022/04/23 11:36:43;;;;;;;;;;;;;;;;;;5077291;28;19913;-44
2022/04/23 11:39:09;;;;;;;;;;;;;;;;;;5077108;28;19912;-44
2022/04/23 11:41:34;;;;;;;;;;;;;;;;;;5077103;28;19908;-43
2022/04/23 11:43:59;;;;;;;;;;;;;;;;;;5076978;28;19908;-44
2022/04/23 11:46:24;;;;;;;;;;;;;;;;;;5076839;28;19912;-45
2022/04/23 11:48:50;;;;;;;;;;;;;;;;;;5077112;28;19916;-42
2022/04/23 11:51:16;;;;;;;;;;;;;;;;;;5073066;28;19963;-43
2022/04/23 11:53:41;;;;;;;;;;;;;;;;;;5056938;28;19909;-43
2022/04/23 11:56:06;;;;;;;;;;;;;;;;;;5056705;28;19921;-42
2022/04/23 11:58:31;;;;;;;;;;;;;;;;;;5056809;28;20363;-43
2022/04/23 12:00:56;;;;;;;;;;;;;;;;;;5056804;28;20287;-43
2022/04/23 12:03:21;;;;;;;;;;;;;;;;;;5056680;28;19909;-43
2022/04/23 12:05:46;;;;;;;;;;;;;;;;;;5056670;28;19909;-44
2022/04/23 12:08:11;;;;;;;;;;;;;;;;;;5056794;28;19909;-43
2022/04/23 12:10:37;;;;;;;;;;;;;;;;;;5055493;28;19913;-45
2022/04/23 12:13:08;;;;;;;;;;;;;;;;;;5056536;28;20323;-43
2022/04/23 12:15:34;;;;;;;;;;;;;;;;;;5056414;28;19909;-44
2022/04/23 12:17:59;;;;;;;;;;;;;;;;;;5056596;28;19909;-44
2022/04/23 12:20:24;;;;;;;;;;;;;;;;;;5056113;28;19909;-43
2022/04/23 12:22:49;;;;;;;;;;;;;;;;;;5056084;28;20332;-44
2022/04/23 12:25:16;;;;;;;;;;;;;;;;;;5055818;28;20405;-44
2022/04/23 12:27:41;;;;;;;;;;;;;;;;;;5055888;28;19909;-44
2022/04/23 12:41:02;;;;;;;;;;;;;;;;;;5056021;28;19916;-44
2022/04/23 12:43:28;;;;;;;;;;;;;;;;;;5055978;28;19921;-45
2022/04/23 12:45:54;;;;;;;;;;;;;;;;;;5055353;28;19916;-44
2022/04/23 12:48:19;;;;;;;;;;;;;;;;;;5059220;28;20347;-43
2022/04/23 12:50:44;;;;;;;;;;;;;;;;;;5056376;28;19936;-46
2022/04/23 12:53:09;;;;;;;;;;;;;;;;;;5075371;28;19920;-44
2022/04/23 12:55:37;;;;;;;;;;;;;;;;;;5062872;28;19921;-44
2022/04/23 12:58:02;;;;;;;;;;;;;;;;;;5055474;28;19917;-44
2022/04/23 13:00:28;;;;;;;;;;;;;;;;;;5059425;28;19920;-44
2022/04/23 13:02:58;;;;;;;;;;;;;;;;;;5065375;28;20416;-44
2022/04/23 13:05:23;;;;;;;;;;;;;;;;;;5074084;28;19912;-43
2022/04/23 13:10:33;;;;;;;;;;;;;;;;;;5072669;28;19923;-44
2022/04/23 13:12:59;;;;;;;;;;;;;;;;;;5075464;28;19908;-44
2022/04/23 13:15:25;;;;;;;;;;;;;;;;;;5075472;28;20418;-45
2022/04/23 13:17:50;;;;;;;;;;;;;;;;;;5075325;28;19950;-44
2022/04/23 13:20:15;;;;;;;;;;;;;;;;;;5075375;28;19915;-44
2022/04/23 13:22:43;;;;;;;;;;;;;;;;;;5057516;28;20364;-44
2022/04/23 13:25:08;;;;;;;;;;;;;;;;;;5063385;28;19972;-44
2022/04/23 13:27:33;;;;;;;;;;;;;;;;;;5075101;28;19975;-44
2022/04/23 13:29:59;;;;;;;;;;;;;;;;;;5075180;28;19958;-44
2022/04/23 13:32:24;;;;;;;;;;;;;;;;;;5074988;28;19908;-43
2022/04/23 13:34:49;;;;;;;;;;;;;;;;;;5075140;28;19916;-44
2022/04/23 13:37:14;;;;;;;;;;;;;;;;;;5075021;28;19913;-45
2022/04/23 13:39:41;;;;;;;;;;;;;;;;;;5074841;28;19935;-43
2022/04/23 13:42:06;;;;;;;;;;;;;;;;;;5074807;28;20264;-44
2022/04/23 13:44:32;;;;;;;;;;;;;;;;;;5074907;28;19966;-43
2022/04/23 13:46:57;;;;;;;;;;;;;;;;;;5074647;28;19909;-43
2022/04/23 13:49:22;;;;;;;;;;;;;;;;;;5074698;28;20351;-45
2022/04/23 13:51:47;;;;;;;;;;;;;;;;;;5069928;28;20003;-44
2022/04/23 13:54:12;;;;;;;;;;;;;;;;;;5074153;28;20354;-44
2022/04/23 13:56:37;;;;;;;;;;;;;;;;;;5074470;28;20000;-44
2022/04/23 13:59:03;;;;;;;;;;;;;;;;;;5074583;28;19909;-44
2022/04/23 14:01:28;;;;;;;;;;;;;;;;;;5074832;28;19920;-44
2022/04/23 14:12:05;;;;;;;;;;;;;;;;;;5074479;28;19963;-44
2022/04/23 14:14:30;;;;;;;;;;;;;;;;;;5074503;28;19909;-44
2022/04/23 14:16:56;;;;;;;;;;;;;;;;;;5074472;28;20003;-46
2022/04/23 14:19:21;;;;;;;;;;;;;;;;;;5074619;28;19913;-46
2022/04/23 14:21:46;;;;;;;;;;;;;;;;;;5074238;28;20005;-44
2022/04/23 14:24:11;;;;;;;;;;;;;;;;;;5074413;28;19908;-45
2022/04/23 14:26:36;;;;;;;;;;;;;;;;;;5054228;28;20276;-44
2022/04/23 14:29:01;;;;;;;;;;;;;;;;;;5054288;28;20352;-44
2022/04/23 14:31:28;;;;;;;;;;;;;;;;;;5054348;28;19920;-45
2022/04/23 14:33:53;;;;;;;;;;;;;;;;;;5059035;28;20352;-45
2022/04/23 14:36:18;;;;;;;;;;;;;;;;;;5078438;28;20003;-44
2022/04/23 14:38:43;;;;;;;;;;;;;;;;;;5078459;28;19965;-46
2022/04/23 14:41:09;;;;;;;;;;;;;;;;;;5078307;28;19914;-45
2022/04/23 14:43:35;;;;;;;;;;;;;;;;;;5078341;28;19915;-45
2022/04/23 14:46:02;;;;;;;;;;;;;;;;;;5078086;28;19908;-44
2022/04/23 14:48:27;;;;;;;;;;;;;;;;;;5077854;28;19904;-44
2022/04/23 14:53:36;;;;;;;;;;;;;;;;;;5078097;28;19915;-43
2022/04/23 14:56:01;;;;;;;;;;;;;;;;;;5077435;28;19924;-43
2022/04/23 14:58:27;;;;;;;;;;;;;;;;;;5077915;28;20337;-46
2022/04/23 15:00:52;;;;;;;;;;;;;;;;;;5077733;28;19908;-44
2022/04/23 15:03:17;;;;;;;;;;;;;;;;;;5077718;28;19909;-46
2022/04/23 15:05:42;;;;;;;;;;;;;;;;;;5077667;28;19919;-45
2022/04/23 15:08:08;;;;;;;;;;;;;;;;;;5077643;28;20428;-44
2022/04/23 15:10:33;;;;;;;;;;;;;;;;;;5077328;28;19920;-44
2022/04/23 15:12:58;;;;;;;;;;;;;;;;;;5077465;28;20386;-44
2022/04/23 15:15:24;;;;;;;;;;;;;;;;;;5077451;28;19904;-43
2022/04/23 15:17:49;;;;;;;;;;;;;;;;;;5065969;28;20279;-44
2022/04/23 15:20:14;;;;;;;;;;;;;;;;;;5057366;28;19916;-45
2022/04/23 15:22:39;;;;;;;;;;;;;;;;;;5057387;28;19916;-44
2022/04/23 15:25:04;;;;;;;;;;;;;;;;;;5057270;28;19909;-46
2022/04/23 15:27:29;;;;;;;;;;;;;;;;;;5057149;28;19915;-45
2022/04/23 15:29:55;;;;;;;;;;;;;;;;;;5057235;28;19996;-46
2022/04/23 15:32:20;;;;;;;;;;;;;;;;;;5057045;28;19916;-44
2022/04/23 15:34:46;;;;;;;;;;;;;;;;;;5055681;28;20310;-44
2022/04/23 15:37:11;;;;;;;;;;;;;;;;;;5056915;28;19912;-43
2022/04/23 15:39:36;;;;;;;;;;;;;;;;;;5055860;28;19908;-47
2022/04/23 15:42:04;;;;;;;;;;;;;;;;;;5057088;28;19993;-44
2022/04/23 15:44:29;;;;;;;;;;;;;;;;;;5056967;28;19909;-45
2022/04/23 15:46:54;;;;;;;;;;;;;;;;;;5056949;28;19916;-44
2022/04/23 15:49:19;;;;;;;;;;;;;;;;;;5056746;28;20352;-43
2022/04/23 15:51:44;;;;;;;;;;;;;;;;;;5069999;28;20256;-44
2022/04/23 15:54:09;;;;;;;;;;;;;;;;;;5067204;28;19912;-44
2022/04/23 15:56:36;;;;;;;;;;;;;;;;;;5069229;28;19921;-43
2022/04/23 15:59:01;;;;;;;;;;;;;;;;;;5076686;28;20013;-43
2022/04/23 16:01:26;;;;;;;;;;;;;;;;;;5076710;28;19912;-45
2022/04/23 16:03:52;;;;;;;;;;;;;;;;;;5076552;28;20351;-45
2022/04/23 16:06:17;;;;;;;;;;;;;;;;;;5076363;28;19912;-46
2022/04/23 16:08:42;;;;;;;;;;;;;;;;;;5076510;28;19936;-44
2022/04/23 16:11:07;;;;;;;;;;;;;;;;;;5076485;28;19917;-44
2022/04/23 16:13:33;;;;;;;;;;;;;;;;;;5076385;28;19951;-44
2022/04/23 16:15:58;;;;;;;;;;;;;;;;;;5076477;28;19905;-44
2022/04/23 16:18:23;;;;;;;;;;;;;;;;;;5076456;28;19916;-44
2022/04/23 16:20:48;;;;;;;;;;;;;;;;;;5069915;28;19921;-43
2022/04/23 16:23:13;;;;;;;;;;;;;;;;;;5056149;28;19915;-43
2022/04/23 16:25:39;;;;;;;;;;;;;;;;;;5067038;28;20367;-44
2022/04/23 16:28:04;;;;;;;;;;;;;;;;;;5074618;28;19914;-43
2022/04/23 16:30:29;;;;;;;;;;;;;;;;;;5076047;28;19990;-43
2022/04/23 16:32:54;;;;;;;;;;;;;;;;;;5075955;28;19944;-43
2022/04/23 16:35:19;;;;;;;;;;;;;;;;;;5076113;28;19905;-43
2022/04/23 16:48:41;;;;;;;;;;;;;;;;;;5075776;28;19919;-43
2022/04/23 16:51:06;;;;;;;;;;;;;;;;;;5075816;28;19913;-43
2022/04/23 16:53:31;;;;;;;;;;;;;;;;;;5075270;28;19978;-43
2022/04/23 16:55:56;;;;;;;;;;;;;;;;;;5074742;28;19927;-43
2022/04/23 16:58:22;;;;;;;;;;;;;;;;;;5075516;28;19912;-46
2022/04/23 17:00:47;;;;;;;;;;;;;;;;;;5075621;28;20431;-43
2022/04/23 17:03:12;;;;;;;;;;;;;;;;;;5075349;28;20428;-42
2022/04/23 17:05:37;;;;;;;;;;;;;;;;;;5075292;28;19904;-43
2022/04/23 17:08:02;;;;;;;;;;;;;;;;;;5075272;28;19908;-43
2022/04/23 17:10:27;;;;;;;;;;;;;;;;;;5075173;28;19912;-44
2022/04/23 17:12:52;;;;;;;;;;;;;;;;;;5075478;28;19908;-43
2022/04/23 17:15:18;;;;;;;;;;;;;;;;;;5074119;28;19919;-44
2022/04/23 17:17:43;;;;;;;;;;;;;;;;;;5075103;28;19908;-44
2022/04/23 17:20:08;;;;;;;;;;;;;;;;;;5075148;28;19912;-43
2022/04/23 17:22:34;;;;;;;;;;;;;;;;;;5075418;28;19915;-44
2022/04/23 17:24:59;;;;;;;;;;;;;;;;;;5074227;28;20260;-44
2022/04/23 17:27:24;;;;;;;;;;;;;;;;;;5075200;28;19908;-44
2022/04/23 17:29:51;;;;;;;;;;;;;;;;;;5075017;28;19908;-44